createdAt,value
2022-11-15T00:02:15.342Z,102.70
2022-11-15T00:04:46.458Z,100.68
2022-11-15T00:07:40.492Z,104.85
2022-11-15T00:10:09.708Z,107.68
2022-11-15T00:12:41.463Z,106.75
2022-11-15T00:15:15.119Z,112.30
2022-11-15T00:17:46.300Z,103.35
2022-11-15T00:20:18.105Z,106.43
2022-11-15T00:22:49.368Z,101.35
2022-11-15T00:25:20.293Z,109.00
2022-11-15T00:27:52.945Z,101.20
2022-11-15T00:30:26.517Z,102.80
2022-11-15T00:32:58.239Z,113.00
2022-11-15T00:35:29.445Z,101.88
2022-11-15T00:38:00.783Z,108.75
2022-11-15T00:40:32.142Z,100.75
2022-11-15T00:43:03.810Z,104.47
2022-11-15T00:45:38.541Z,102.07
2022-11-15T00:48:11.747Z,106.88
2022-11-15T00:50:44.352Z,113.28
2022-11-15T00:53:32.392Z,109.78
2022-11-15T00:56:05.041Z,106.97
2022-11-15T00:58:37.660Z,112.78
2022-11-15T01:01:18.452Z,118.78
2022-11-15T01:03:51.263Z,114.30
2022-11-15T01:06:23.621Z,112.65
2022-11-15T01:08:56.384Z,119.70
2022-11-15T01:11:29.023Z,122.00
2022-11-15T01:14:02.221Z,114.85
2022-11-15T01:16:37.571Z,124.15
2022-11-15T01:19:10.691Z,122.88
2022-11-15T01:21:56.812Z,113.00
2022-11-15T01:24:28.296Z,121.35
2022-11-15T01:26:59.324Z,113.53
2022-11-15T01:29:30.854Z,117.93
2022-11-15T01:32:04.750Z,119.38
2022-11-15T01:34:38.047Z,119.97
2022-11-15T01:37:09.361Z,118.25
2022-11-15T01:39:40.827Z,112.60
2022-11-15T01:42:17.753Z,119.13
2022-11-15T01:44:54.551Z,123.22
2022-11-15T01:47:46.262Z,121.65
2022-11-15T01:50:24.562Z,125.03
2022-11-15T01:53:43.863Z,121.50
2022-11-15T01:56:24.523Z,119.47
2022-11-15T01:59:03.242Z,121.00
2022-11-15T02:01:43.803Z,124.05
2022-11-15T02:04:23.375Z,121.35
2022-11-15T02:06:56.253Z,121.60
2022-11-15T02:09:28.903Z,118.78
2022-11-15T02:12:03.750Z,123.90
2022-11-15T02:14:42.231Z,126.63
2022-11-15T02:20:40.610Z,131.73
2022-11-15T02:23:41.323Z,126.65
2022-11-15T02:26:45.800Z,122.85
2022-11-15T02:29:25.483Z,123.97
2022-11-15T02:32:05.455Z,124.68
2022-11-15T02:34:51.901Z,122.38
2022-11-15T02:37:32.758Z,127.82
2022-11-15T02:40:13.819Z,125.20
2022-11-15T02:43:08.306Z,129.30
2022-11-15T02:45:57.077Z,124.68
2022-11-15T02:48:32.114Z,124.20
2022-11-15T02:51:05.282Z,124.93
2022-11-15T02:53:36.757Z,128.27
2022-11-15T02:56:09.017Z,134.10
2022-11-15T02:59:02.537Z,121.80
2022-11-15T03:01:46.711Z,120.88
2022-11-15T03:04:33.601Z,122.78
2022-11-15T03:07:15.036Z,123.00
2022-11-15T03:09:55.989Z,115.32
2022-11-15T03:12:33.304Z,124.60
2022-11-15T03:15:09.868Z,123.43
2022-11-15T03:17:47.105Z,125.85
2022-11-15T03:20:23.047Z,120.43
2022-11-15T03:22:57.117Z,121.13
2022-11-15T03:25:32.337Z,115.63
2022-11-15T03:28:40.105Z,118.78
2022-11-15T03:31:28.704Z,113.38
2022-11-15T03:34:20.570Z,111.78
2022-11-15T03:36:56.982Z,125.95
2022-11-15T03:39:32.713Z,126.25
2022-11-15T03:42:16.593Z,122.15
2022-11-15T03:44:57.585Z,117.28
2022-11-15T03:47:36.014Z,117.45
2022-11-15T03:50:15.463Z,111.65
2022-11-15T03:52:53.204Z,115.30
2022-11-15T03:55:27.106Z,109.15
2022-11-15T03:58:03.034Z,112.70
2022-11-15T04:00:36.922Z,111.55
2022-11-15T04:03:10.692Z,115.47
2022-11-15T04:05:43.377Z,115.72
2022-11-15T04:08:17.725Z,110.47
2022-11-15T04:13:43.286Z,107.95
2022-11-15T04:16:15.061Z,110.55
2022-11-15T04:19:06.629Z,109.97
2022-11-15T04:21:50.815Z,105.65
2022-11-15T04:24:24.911Z,105.97
2022-11-15T04:26:57.068Z,102.53
2022-11-15T04:29:41.618Z,108.68
2022-11-15T04:32:16.501Z,102.82
2022-11-15T04:34:48.186Z,101.28
2022-11-15T04:37:20.123Z,104.13
2022-11-15T04:39:54.340Z,104.35
2022-11-15T04:42:26.322Z,99.47
2022-11-15T04:44:57.948Z,104.75
2022-11-15T04:47:30.840Z,106.32
2022-11-15T04:50:02.396Z,106.03
2022-11-15T04:52:34.430Z,105.38
2022-11-15T04:55:09.254Z,98.90
2022-11-15T04:57:43.987Z,105.85
2022-11-15T05:00:18.801Z,103.85
2022-11-15T05:03:03.173Z,106.70
2022-11-15T05:05:34.690Z,109.32
2022-11-15T05:08:08.143Z,119.63
2022-11-15T05:10:44.074Z,109.53
2022-11-15T05:13:17.895Z,113.47
2022-11-15T05:16:19.133Z,98.57
2022-11-15T05:18:58.182Z,107.32
2022-11-15T05:21:31.645Z,104.18
2022-11-15T05:24:05.686Z,101.10
2022-11-15T05:27:05.604Z,106.43
2022-11-15T05:29:39.304Z,99.50
2022-11-15T05:32:28.552Z,96.10
2022-11-15T05:35:02.354Z,110.15
2022-11-15T05:37:35.363Z,104.47
2022-11-15T05:40:10.394Z,103.72
2022-11-15T05:45:37.113Z,108.15
2022-11-15T05:48:13.576Z,102.47
2022-11-15T05:50:50.155Z,101.35
2022-11-15T05:53:27.325Z,99.18
2022-11-15T05:55:59.291Z,104.60
2022-11-15T05:58:35.499Z,104.68
2022-11-15T06:01:07.496Z,108.40
2022-11-15T06:03:39.086Z,107.78
2022-11-15T06:06:15.187Z,104.15
2022-11-15T06:08:49.078Z,101.63
2022-11-15T06:11:21.167Z,103.50
2022-11-15T06:13:55.885Z,98.25
2022-11-15T06:16:28.090Z,108.43
2022-11-15T06:19:00.142Z,99.10
2022-11-15T06:21:31.975Z,102.50
2022-11-15T06:24:03.578Z,106.10
2022-11-15T06:26:36.015Z,104.18
2022-11-15T06:29:10.265Z,104.82
2022-11-15T06:31:41.982Z,97.85
2022-11-15T06:34:13.769Z,100.05
2022-11-15T06:36:45.759Z,105.63
2022-11-15T06:39:17.234Z,97.45
2022-11-15T06:41:49.271Z,107.45
2022-11-15T06:44:23.661Z,105.63
2022-11-15T06:46:55.564Z,100.32
2022-11-15T06:49:27.073Z,100.72
2022-11-15T06:51:58.708Z,100.88
2022-11-15T06:54:30.161Z,107.57
2022-11-15T06:57:01.813Z,100.40
2022-11-15T06:59:40.296Z,98.50
2022-11-15T07:02:16.984Z,109.43
2022-11-15T07:04:48.405Z,105.72
2022-11-15T07:07:20.224Z,98.70
2022-11-15T07:09:51.889Z,99.95
2022-11-15T07:12:24.714Z,99.00
2022-11-15T07:14:58.471Z,99.57
2022-11-15T07:17:30.353Z,98.32
2022-11-15T07:20:01.719Z,100.35
2022-11-15T07:22:33.484Z,96.45
2022-11-15T07:25:05.008Z,93.75
2022-11-15T07:27:36.963Z,89.72
2022-11-15T07:30:14.495Z,92.68
2022-11-15T07:32:47.751Z,97.25
2022-11-15T07:35:18.915Z,90.80
2022-11-15T07:38:19.429Z,94.60
2022-11-15T07:40:51.335Z,86.75
2022-11-15T07:43:23.265Z,87.43
2022-11-15T07:45:59.561Z,85.13
2022-11-15T07:48:42.631Z,90.45
2022-11-15T07:51:17.640Z,88.85
2022-11-15T07:53:49.687Z,82.45
2022-11-15T07:56:22.428Z,83.93
2022-11-15T07:58:54.545Z,87.35
2022-11-15T08:01:29.328Z,84.10
2022-11-15T08:04:01.553Z,88.47
2022-11-15T08:06:33.180Z,88.00
2022-11-15T08:09:05.449Z,81.88
2022-11-15T08:11:36.890Z,79.70
2022-11-15T08:14:08.921Z,81.03
2022-11-15T08:16:42.980Z,76.22
2022-11-15T08:19:14.806Z,76.75
2022-11-15T08:21:46.250Z,74.45
2022-11-15T08:24:18.090Z,79.05
2022-11-15T08:26:49.891Z,71.65
2022-11-15T08:29:21.759Z,73.90
2022-11-15T08:31:55.869Z,73.18
2022-11-15T08:34:27.687Z,73.55
2022-11-15T08:36:59.310Z,69.43
2022-11-15T08:39:31.189Z,74.15
2022-11-15T08:42:03.565Z,68.72
2022-11-15T08:44:35.841Z,64.05
2022-11-15T08:47:10.276Z,66.95
2022-11-15T08:49:42.498Z,69.20
2022-11-15T08:52:14.210Z,64.68
2022-11-15T08:54:45.986Z,57.13
2022-11-15T08:57:17.668Z,62.13
2022-11-15T08:59:49.704Z,60.08
2022-11-15T09:02:25.466Z,58.35
2022-11-15T09:05:00.703Z,54.85
2022-11-15T09:07:33.354Z,52.53
2022-11-15T09:10:05.936Z,53.13
2022-11-15T09:12:37.313Z,58.75
2022-11-15T09:15:10.667Z,54.67
2022-11-15T09:17:45.567Z,49.85
2022-11-15T09:20:19.498Z,56.47
2022-11-15T09:22:51.036Z,47.10
2022-11-15T09:25:23.084Z,51.60
2022-11-15T09:27:54.303Z,51.38
2022-11-15T09:30:26.412Z,46.50
2022-11-15T09:33:00.905Z,48.00
2022-11-15T09:35:32.615Z,47.78
2022-11-15T09:38:04.103Z,48.53
2022-11-15T09:40:40.299Z,47.17
2022-11-15T09:43:31.871Z,45.33
2022-11-15T09:46:14.148Z,43.70
2022-11-15T09:49:01.553Z,49.63
2022-11-15T09:51:36.675Z,43.53
2022-11-15T09:54:50.903Z,48.58
2022-11-15T09:57:16.677Z,43.72
2022-11-15T10:00:30.707Z,41.22
2022-11-15T10:03:18.295Z,42.90
2022-11-15T10:05:58.263Z,43.42
2022-11-15T10:08:41.743Z,46.65
2022-11-15T10:11:36.866Z,40.75
2022-11-15T10:14:15.678Z,42.25
2022-11-15T10:17:18.755Z,41.35
2022-11-15T10:20:06.283Z,40.42
2022-11-15T10:22:46.389Z,38.30
2022-11-15T10:25:24.030Z,37.97
2022-11-15T10:27:59.074Z,36.60
2022-11-15T10:30:38.885Z,39.15
2022-11-15T10:33:28.428Z,36.95
2022-11-15T10:36:26.963Z,39.08
2022-11-15T10:39:02.564Z,35.45
2022-11-15T10:41:41.094Z,42.60
2022-11-15T10:44:28.242Z,37.70
2022-11-15T10:47:29.009Z,36.85
2022-11-15T10:50:04.587Z,38.38
2022-11-15T10:52:40.582Z,37.63
2022-11-15T10:55:34.547Z,36.47
2022-11-15T10:58:10.655Z,34.13
2022-11-15T11:00:43.884Z,38.17
2022-11-15T11:03:36.392Z,39.22
2022-11-15T11:06:14.244Z,40.90
2022-11-15T11:08:59.732Z,35.05
2022-11-15T11:11:52.611Z,37.88
2022-11-15T11:14:29.175Z,34.20
2022-11-15T11:17:10.036Z,32.17
2022-11-15T11:20:01.116Z,35.75
2022-11-15T11:22:43.924Z,35.53
2022-11-15T11:25:28.971Z,34.30
2022-11-15T11:28:19.087Z,36.13
2022-11-15T11:31:11.011Z,38.45
2022-11-15T11:33:53.290Z,35.38
2022-11-15T11:36:31.987Z,36.15
2022-11-15T11:39:26.643Z,35.03
2022-11-15T11:42:08.294Z,34.22
2022-11-15T11:44:57.572Z,32.40
2022-11-15T11:47:35.681Z,35.58
2022-11-15T11:50:18.899Z,36.22
2022-11-15T11:53:03.952Z,36.20
2022-11-15T11:55:41.257Z,33.03
2022-11-15T11:58:18.742Z,33.92
2022-11-15T12:01:00.566Z,32.88
2022-11-15T12:03:38.605Z,36.50
2022-11-15T12:06:23.652Z,32.13
2022-11-15T12:09:05.048Z,32.42
2022-11-15T12:11:48.155Z,31.20
2022-11-15T12:14:31.726Z,33.47
2022-11-15T12:17:06.233Z,32.08
2022-11-15T12:19:40.933Z,35.47
2022-11-15T12:22:22.535Z,36.03
2022-11-15T12:25:00.684Z,35.97
2022-11-15T12:27:40.961Z,36.90
2022-11-15T12:30:17.258Z,31.88
2022-11-15T12:33:00.477Z,32.78
2022-11-15T12:35:38.205Z,31.85
2022-11-15T12:38:14.426Z,35.55
2022-11-15T12:41:19.168Z,34.22
2022-11-15T12:43:52.382Z,35.72
2022-11-15T12:46:48.045Z,37.95
2022-11-15T12:49:50.900Z,34.15
2022-11-15T12:52:23.555Z,32.70
2022-11-15T12:55:07.665Z,34.30
2022-11-15T12:57:44.524Z,32.15
2022-11-15T13:00:43.229Z,30.38
2022-11-15T13:03:33.133Z,35.13
2022-11-15T13:06:33.221Z,32.15
2022-11-15T13:09:05.372Z,33.78
2022-11-15T13:11:53.812Z,32.80
2022-11-15T13:14:46.036Z,33.13
2022-11-15T13:17:35.139Z,37.20
2022-11-15T13:20:27.338Z,35.15
2022-11-15T13:23:14.359Z,35.78
2022-11-15T13:26:17.474Z,36.28
2022-11-15T13:28:53.699Z,40.67
2022-11-15T13:31:32.336Z,39.42
2022-11-15T13:34:17.933Z,39.03
2022-11-15T13:36:59.907Z,39.05
2022-11-15T13:39:39.263Z,39.65
2022-11-15T13:42:20.570Z,42.53
2022-11-15T13:45:03.021Z,37.70
2022-11-15T13:47:37.045Z,39.92
2022-11-15T13:50:12.466Z,49.72
2022-11-15T13:52:50.608Z,38.30
2022-11-15T13:55:30.245Z,38.88
2022-11-15T13:58:07.605Z,35.40
2022-11-15T14:00:44.890Z,38.25
2022-11-15T14:03:24.764Z,37.35
2022-11-15T14:06:14.645Z,36.25
2022-11-15T14:09:05.669Z,37.75
2022-11-15T14:11:42.167Z,37.00
2022-11-15T14:14:18.863Z,37.67
2022-11-15T14:16:53.638Z,35.85
2022-11-15T14:19:41.085Z,38.38
2022-11-15T14:22:27.485Z,37.45
2022-11-15T14:25:20.303Z,37.15
2022-11-15T14:28:16.487Z,33.40
2022-11-15T14:30:51.534Z,31.17
2022-11-15T14:33:26.697Z,30.15
2022-11-15T14:35:59.591Z,33.22
2022-11-15T14:38:31.908Z,35.17
2022-11-15T14:41:04.265Z,32.60
2022-11-15T14:43:37.986Z,29.67
2022-11-15T14:46:09.752Z,33.10
2022-11-15T14:48:40.962Z,32.38
2022-11-15T14:51:17.302Z,35.70
2022-11-15T14:53:50.305Z,33.85
2022-11-15T14:56:21.922Z,34.25
2022-11-15T14:58:56.138Z,33.05
2022-11-15T15:01:30.200Z,32.15
2022-11-15T15:04:01.444Z,37.67
2022-11-15T15:06:33.265Z,33.42
2022-11-15T15:09:05.752Z,38.50
2022-11-15T15:11:37.305Z,34.08
2022-11-15T15:14:12.646Z,33.28
2022-11-15T15:16:44.468Z,32.28
2022-11-15T15:19:15.803Z,33.60
2022-11-15T15:21:47.428Z,36.83
2022-11-15T15:24:19.316Z,32.03
2022-11-15T15:26:51.542Z,37.00
2022-11-15T15:29:25.931Z,36.78
2022-11-15T15:31:57.682Z,42.25
2022-11-15T15:34:29.175Z,39.65
2022-11-15T15:37:27.234Z,36.88
2022-11-15T15:40:00.531Z,36.22
2022-11-15T15:42:32.671Z,42.75
2022-11-15T15:45:07.249Z,45.40
2022-11-15T15:47:39.541Z,40.97
2022-11-15T15:50:25.173Z,45.70
2022-11-15T15:52:59.295Z,42.97
2022-11-15T15:55:31.919Z,40.05
2022-11-15T15:58:04.195Z,40.53
2022-11-15T16:00:38.516Z,41.92
2022-11-15T16:03:10.505Z,40.85
2022-11-15T16:05:42.788Z,41.95
2022-11-15T16:08:22.858Z,40.88
2022-11-15T16:10:54.767Z,39.20
2022-11-15T16:13:26.650Z,39.13
2022-11-15T16:16:00.794Z,39.60
2022-11-15T16:18:34.607Z,40.40
2022-11-15T16:21:06.168Z,46.42
2022-11-15T16:23:37.948Z,41.40
2022-11-15T16:26:22.207Z,45.85
2022-11-15T16:28:53.547Z,42.00
2022-11-15T16:31:27.597Z,47.03
2022-11-15T16:34:01.589Z,46.53
2022-11-15T16:36:36.470Z,48.88
2022-11-15T16:39:08.378Z,45.17
2022-11-15T16:41:39.790Z,47.72
2022-11-15T16:44:11.303Z,50.97
2022-11-15T16:46:54.584Z,53.58
2022-11-15T16:49:26.423Z,51.67
2022-11-15T16:51:57.929Z,49.20
2022-11-15T16:54:29.814Z,52.85
2022-11-15T16:57:01.111Z,49.28
2022-11-15T16:59:38.159Z,49.10
2022-11-15T17:02:15.969Z,55.03
2022-11-15T17:04:50.528Z,55.38
2022-11-15T17:07:21.803Z,56.08
2022-11-15T17:09:53.571Z,57.63
2022-11-15T17:12:24.940Z,55.55
2022-11-15T17:14:56.520Z,59.05
2022-11-15T17:17:30.535Z,59.85
2022-11-15T17:20:05.396Z,58.25
2022-11-15T17:22:36.545Z,62.50
2022-11-15T17:25:09.369Z,66.72
2022-11-15T17:27:40.530Z,68.25
2022-11-15T17:30:15.608Z,66.57
2022-11-15T17:32:50.510Z,70.75
2022-11-15T17:35:22.233Z,79.13
2022-11-15T17:37:53.730Z,77.97
2022-11-15T17:40:25.628Z,77.45
2022-11-15T17:42:57.602Z,76.95
2022-11-15T17:45:30.474Z,76.15
2022-11-15T17:48:04.429Z,79.15
2022-11-15T17:50:36.383Z,83.90
2022-11-15T17:53:07.876Z,85.93
2022-11-15T17:55:39.629Z,83.78
2022-11-15T17:58:11.443Z,85.68
2022-11-15T18:00:43.003Z,91.40
2022-11-15T18:03:18.298Z,89.47
2022-11-15T18:05:50.245Z,92.40
2022-11-15T18:08:24.408Z,94.57
2022-11-15T18:11:08.924Z,90.32
2022-11-15T18:13:42.218Z,97.38
2022-11-15T18:16:17.393Z,97.05
2022-11-15T18:18:52.028Z,87.63
2022-11-15T18:21:25.834Z,91.00
2022-11-15T18:23:59.789Z,97.15
2022-11-15T18:26:34.182Z,92.57
2022-11-15T18:29:07.732Z,90.43
2022-11-15T18:31:43.590Z,95.50
2022-11-15T18:34:22.072Z,90.13
2022-11-15T18:36:56.065Z,96.40
2022-11-15T18:39:28.983Z,89.35
2022-11-15T18:42:02.453Z,95.28
2022-11-15T18:44:37.895Z,93.07
2022-11-15T18:47:11.425Z,93.00
2022-11-15T18:49:47.518Z,93.18
2022-11-15T18:52:21.332Z,91.50
2022-11-15T18:54:54.167Z,89.35
2022-11-15T18:57:27.455Z,90.68
2022-11-15T19:00:01.163Z,86.38
2022-11-15T19:02:34.240Z,89.47
2022-11-15T19:05:10.195Z,94.30
2022-11-15T19:07:43.320Z,92.13
2022-11-15T19:10:15.814Z,94.57
2022-11-15T19:12:49.934Z,88.63
2022-11-15T19:15:22.418Z,92.13
2022-11-15T19:17:55.550Z,91.35
2022-11-15T19:20:30.695Z,94.75
2022-11-15T19:23:03.934Z,91.90
2022-11-15T19:25:37.016Z,97.13
2022-11-15T19:28:10.053Z,90.50
2022-11-15T19:30:42.720Z,96.20
2022-11-15T19:33:15.696Z,94.03
2022-11-15T19:35:51.135Z,95.03
2022-11-15T19:38:24.247Z,104.50
2022-11-15T19:41:02.700Z,102.20
2022-11-15T19:43:36.275Z,107.38
2022-11-15T19:46:10.133Z,101.40
2022-11-15T19:48:43.356Z,104.20
2022-11-15T19:51:22.003Z,112.32
2022-11-15T19:54:01.818Z,115.88
2022-11-15T19:56:34.320Z,112.82
2022-11-15T19:59:08.136Z,114.15
2022-11-15T20:01:40.951Z,121.57
2022-11-15T20:04:13.994Z,124.40
2022-11-15T20:06:49.170Z,120.03
2022-11-15T20:09:22.174Z,128.32
2022-11-15T20:11:54.756Z,118.45
2022-11-15T20:14:29.833Z,121.10
2022-11-15T20:17:02.295Z,128.40
2022-11-15T20:19:35.421Z,124.55
2022-11-15T20:22:11.181Z,127.88
2022-11-15T20:24:44.335Z,122.07
2022-11-15T20:27:16.758Z,117.10
2022-11-15T20:30:06.957Z,134.90
2022-11-15T20:32:39.575Z,130.95
2022-11-15T20:35:13.334Z,131.68
2022-11-15T20:37:48.934Z,131.57
2022-11-15T20:40:22.221Z,126.93
2022-11-15T20:42:56.922Z,127.85
2022-11-15T20:45:30.034Z,126.15
2022-11-15T20:48:02.772Z,126.60
2022-11-15T20:50:42.519Z,126.05
2022-11-15T20:53:20.474Z,126.03
2022-11-15T20:55:55.473Z,131.63
2022-11-15T20:58:30.514Z,122.13
2022-11-15T21:01:04.511Z,128.85
2022-11-15T21:03:38.057Z,128.13
2022-11-15T21:06:12.173Z,119.53
2022-11-15T21:08:59.721Z,120.60
2022-11-15T21:11:45.123Z,116.18
2022-11-15T21:14:18.018Z,121.00
2022-11-15T21:16:51.569Z,116.05
2022-11-15T21:19:29.063Z,116.75
2022-11-15T21:22:05.637Z,110.60
2022-11-15T21:24:41.197Z,121.88
2022-11-15T21:27:22.786Z,107.72
2022-11-15T21:29:56.157Z,121.47
2022-11-15T21:32:29.594Z,109.72
2022-11-15T21:35:02.725Z,114.65
2022-11-15T21:37:36.417Z,116.78
2022-11-15T21:40:13.459Z,112.53
2022-11-15T21:42:47.541Z,113.28
2022-11-15T21:45:20.795Z,124.95
2022-11-15T21:47:54.184Z,121.80
2022-11-15T21:50:27.060Z,114.63
2022-11-15T21:53:00.679Z,115.30
2022-11-15T21:55:36.316Z,122.93
2022-11-15T21:58:09.719Z,116.50
2022-11-15T22:00:54.699Z,115.53
2022-11-15T22:03:28.297Z,119.40
2022-11-15T22:06:01.224Z,127.85
2022-11-15T22:08:34.817Z,121.78
2022-11-15T22:11:10.512Z,113.30
2022-11-15T22:13:43.741Z,115.78
2022-11-15T22:16:16.178Z,116.22
2022-11-15T22:18:49.705Z,113.82
2022-11-15T22:21:23.315Z,116.93
2022-11-15T22:23:56.616Z,123.25
2022-11-15T22:26:32.075Z,116.32
2022-11-15T22:29:05.534Z,115.57
2022-11-15T22:31:38.087Z,122.43
2022-11-15T22:34:11.555Z,124.55
2022-11-15T22:37:13.176Z,120.80
2022-11-15T22:39:41.057Z,117.55
2022-11-15T22:42:22.204Z,115.03
2022-11-15T22:44:56.799Z,114.07
2022-11-15T22:47:29.758Z,118.43
2022-11-15T22:50:03.172Z,110.05
2022-11-15T22:52:35.893Z,116.82
2022-11-15T22:55:10.296Z,115.00
2022-11-15T22:57:45.777Z,117.50
2022-11-15T23:00:20.502Z,121.78
2022-11-15T23:02:54.598Z,119.13
2022-11-15T23:05:27.855Z,118.28
2022-11-15T23:08:00.575Z,120.22
2022-11-15T23:10:45.875Z,131.77
2022-11-15T23:13:21.434Z,126.40
2022-11-15T23:16:07.661Z,127.50
2022-11-15T23:18:42.154Z,122.90
2022-11-15T23:21:37.555Z,130.40
2022-11-15T23:24:09.837Z,132.43
2022-11-15T23:26:43.797Z,130.80
2022-11-15T23:29:20.771Z,134.45
2022-11-15T23:32:11.976Z,130.98
2022-11-15T23:34:46.458Z,124.97
2022-11-15T23:37:19.855Z,125.90
2022-11-15T23:39:52.355Z,130.50
2022-11-15T23:42:25.616Z,123.32
2022-11-15T23:45:00.994Z,125.38
2022-11-15T23:47:34.157Z,117.72
2022-11-15T23:50:36.355Z,120.95
2022-11-15T23:53:09.659Z,120.13
2022-11-15T23:55:42.615Z,119.13
2022-11-15T23:58:15.857Z,123.68
